Time;durP1;ratioP1;P1;durP2;ratioP2;P2;SDS_P1;SDS_P2;PMS_P1;PMS_P2;Temp;Humidity;BMP_temperature;BMP_pressure;BME280_temperature;BME280_humidity;BME280_pressure;Samples;Min_cycle;Max_cycle;Signal;HPM_P1;HPM_P2
2023/04/27 00:00:41;;;;;;;16.92;10.65;;;;;;;17.76;46.02;102247.47;5035785;28;20054;-35
2023/04/27 00:03:08;;;;;;;17.48;11.23;;;;;;;17.65;46.14;102244.75;5032391;28;20050;-36
2023/04/27 00:05:37;;;;;;;17.27;10.57;;;;;;;17.55;46.45;102249.06;5033211;28;20053;-35
2023/04/27 00:08:05;;;;;;;16.63;9.90;;;;;;;17.46;46.32;102249.78;5035186;28;20088;-35
2023/04/27 00:10:32;;;;;;;16.02;9.98;;;;;;;17.39;46.72;102243.16;5035172;28;20061;-36
2023/04/27 00:13:00;;;;;;;15.85;10.35;;;;;;;17.33;46.54;102243.66;5036536;28;20440;-35
2023/04/27 00:15:28;;;;;;;16.75;10.32;;;;;;;17.25;47.45;102242.38;5033279;28;20065;-35
2023/04/27 00:17:56;;;;;;;17.02;9.60;;;;;;;17.21;46.88;102240.06;5033574;28;20057;-35
2023/04/27 00:20:22;;;;;;;15.52;9.70;;;;;;;17.16;47.57;102239.50;5031021;28;20077;-35
2023/04/27 00:22:49;;;;;;;16.10;10.20;;;;;;;17.11;47.33;102239.84;5035659;28;20053;-35
2023/04/27 00:25:16;;;;;;;15.55;9.70;;;;;;;17.08;47.90;102233.88;5032653;28;20104;-35
2023/04/27 00:27:42;;;;;;;14.80;9.13;;;;;;;17.05;47.68;102239.47;5040968;28;20045;-35
2023/04/27 00:30:09;;;;;;;15.27;10.07;;;;;;;17.02;47.83;102236.03;5033464;28;20346;-35
2023/04/27 00:32:36;;;;;;;15.13;8.93;;;;;;;16.99;47.50;102235.41;5034446;28;20057;-35
2023/04/27 00:35:03;;;;;;;15.93;9.35;;;;;;;16.97;47.27;102232.84;5031830;28;20378;-35
2023/04/27 00:37:29;;;;;;;13.50;8.55;;;;;;;16.97;47.88;102237.38;5038741;28;20052;-35
2023/04/27 00:39:56;;;;;;;14.75;8.40;;;;;;;16.96;47.51;102244.50;5034124;28;20041;-35
2023/04/27 00:42:23;;;;;;;16.70;9.43;;;;;;;16.96;47.05;102244.50;5036093;28;20045;-35
2023/04/27 00:44:50;;;;;;;15.35;8.82;;;;;;;16.96;47.35;102241.84;5036102;28;20052;-35
2023/04/27 00:47:17;;;;;;;12.82;8.57;;;;;;;16.97;48.01;102243.56;5035661;28;20051;-35
2023/04/27 00:49:43;;;;;;;15.05;8.88;;;;;;;16.97;47.05;102240.88;5034163;28;20417;-35
2023/04/27 00:52:10;;;;;;;14.57;9.25;;;;;;;17.06;47.89;102231.31;5038044;28;20053;-35
2023/04/27 00:54:37;;;;;;;15.80;8.48;;;;;;;17.17;46.94;102222.50;5035664;28;20042;-39
2023/04/27 00:57:04;;;;;;;11.80;7.38;;;;;;;17.27;47.06;102218.13;5036533;28;20133;-36
2023/04/27 00:59:31;;;;;;;12.82;7.68;;;;;;;17.40;46.98;102231.47;5035235;28;20340;-36
2023/04/27 01:01:58;;;;;;;12.15;7.90;;;;;;;17.50;46.76;102227.13;5032786;28;20076;-36
2023/04/27 01:04:25;;;;;;;13.90;7.82;;;;;;;17.60;46.19;102225.44;5038189;28;20049;-36
2023/04/27 01:06:52;;;;;;;12.52;7.78;;;;;;;17.70;46.27;102228.28;5034823;28;20042;-36
2023/04/27 01:09:20;;;;;;;12.18;7.97;;;;;;;17.79;46.18;102229.44;5037566;28;20144;-36
2023/04/27 01:11:46;;;;;;;12.25;7.60;;;;;;;17.86;45.78;102236.06;5016660;28;20057;-36
2023/04/27 01:14:14;;;;;;;13.15;7.68;;;;;;;17.91;45.64;102239.22;5033900;28;20096;-36
2023/04/27 01:16:41;;;;;;;10.65;6.93;;;;;;;17.96;45.68;102245.94;5032213;28;20045;-35
2023/04/27 01:19:08;;;;;;;11.73;7.35;;;;;;;17.99;45.74;102239.47;5032777;28;20615;-35
2023/04/27 01:21:34;;;;;;;10.40;7.20;;;;;;;18.02;45.42;102241.94;5029558;28;20053;-35
2023/04/27 01:24:04;;;;;;;11.57;7.53;;;;;;;18.03;45.24;102235.59;5034697;28;20057;-36
2023/04/27 01:26:31;;;;;;;12.00;7.68;;;;;;;18.05;45.38;102233.66;5037466;28;20049;-37
2023/04/27 01:28:58;;;;;;;12.15;6.90;;;;;;;18.06;45.22;102230.00;5030092;28;20057;-35
2023/04/27 01:31:24;;;;;;;11.77;7.07;;;;;;;18.05;45.39;102232.78;5028455;28;20059;-36
2023/04/27 01:33:51;;;;;;;12.50;6.75;;;;;;;18.06;45.07;102223.78;5032530;28;20057;-38
2023/04/27 01:36:17;;;;;;;9.50;6.88;;;;;;;18.05;45.37;102225.59;5031474;28;20067;-35
2023/04/27 01:38:44;;;;;;;11.40;6.88;;;;;;;18.04;45.11;102223.88;5034558;28;20049;-36
2023/04/27 01:41:10;;;;;;;9.75;6.05;;;;;;;18.04;45.34;102218.50;5030038;28;20042;-36
2023/04/27 01:43:37;;;;;;;10.30;6.30;;;;;;;18.03;45.39;102216.81;5030748;28;20045;-36
2023/04/27 01:46:11;;;;;;;10.73;6.55;;;;;;;18.03;45.03;102210.59;5031637;28;20042;-35
2023/04/27 01:48:40;;;;;;;9.50;6.18;;;;;;;18.01;45.12;102218.78;5034093;28;20461;-36
2023/04/27 01:51:06;;;;;;;9.95;6.22;;;;;;;17.99;45.39;102215.34;5036862;28;20048;-35
2023/04/27 01:53:33;;;;;;;8.75;5.80;;;;;;;17.97;45.01;102215.47;5033950;28;20071;-35
2023/04/27 01:56:00;;;;;;;9.05;6.18;;;;;;;17.93;45.42;102216.69;5033676;28;20046;-36
2023/04/27 01:58:27;;;;;;;10.98;6.30;;;;;;;17.93;45.27;102215.81;5034433;28;20053;-35
2023/04/27 02:00:54;;;;;;;9.13;5.72;;;;;;;17.91;45.41;102215.94;5031364;28;20088;-37
2023/04/27 02:03:20;;;;;;;8.98;6.25;;;;;;;17.89;45.05;102208.97;5034982;28;20044;-37
2023/04/27 02:05:47;;;;;;;8.65;5.95;;;;;;;17.88;45.20;102212.63;5030323;28;20049;-35
2023/04/27 02:08:14;;;;;;;9.10;5.78;;;;;;;17.87;45.01;102224.34;5033892;28;20412;-35
2023/04/27 02:10:41;;;;;;;8.73;5.72;;;;;;;17.85;45.25;102211.06;5038111;28;20119;-35
2023/04/27 02:13:08;;;;;;;9.52;5.80;;;;;;;17.87;45.24;102210.94;5035992;28;20049;-37
2023/04/27 02:15:35;;;;;;;8.82;5.70;;;;;;;17.84;44.99;102212.00;5037965;28;20128;-36
2023/04/27 02:18:02;;;;;;;8.68;5.43;;;;;;;17.83;45.35;102213.00;5034856;28;20053;-36
2023/04/27 02:20:30;;;;;;;8.30;5.18;;;;;;;17.82;45.15;102207.75;5031607;28;20041;-36
2023/04/27 02:22:56;;;;;;;7.85;5.15;;;;;;;17.80;45.03;102209.69;5035058;28;20064;-36
2023/04/27 02:25:23;;;;;;;8.63;5.45;;;;;;;17.76;45.21;102204.56;5032316;28;20448;-36
2023/04/27 02:27:50;;;;;;;8.52;5.45;;;;;;;17.79;45.15;102208.00;5035052;28;20132;-36
2023/04/27 02:30:17;;;;;;;7.18;4.60;;;;;;;17.82;45.12;102197.03;5033083;28;20042;-37
2023/04/27 02:32:45;;;;;;;7.95;5.13;;;;;;;17.86;45.30;102194.00;5034280;28;20062;-37
2023/04/27 02:35:11;;;;;;;9.10;4.70;;;;;;;17.89;45.05;102193.75;5031935;28;20056;-38
2023/04/27 02:37:38;;;;;;;8.07;4.75;;;;;;;17.92;44.93;102193.50;5037434;28;20049;-36
2023/04/27 02:40:06;;;;;;;7.63;4.40;;;;;;;17.97;45.08;102193.16;5035226;28;20417;-34
2023/04/27 02:42:33;;;;;;;6.40;4.55;;;;;;;17.99;45.15;102196.56;5032340;28;20099;-37
2023/04/27 02:44:59;;;;;;;8.63;4.53;;;;;;;18.00;45.06;102187.53;5035267;28;20483;-36
2023/04/27 02:47:26;;;;;;;7.40;4.97;;;;;;;18.02;44.95;102185.59;5031194;28;20046;-36
2023/04/27 02:49:53;;;;;;;6.78;4.38;;;;;;;18.01;44.68;102186.56;5040675;28;20124;-38
2023/04/27 02:52:19;;;;;;;7.15;4.22;;;;;;;17.99;45.01;102189.38;5029921;28;20144;-37
2023/04/27 02:54:46;;;;;;;6.35;4.43;;;;;;;17.99;45.09;102191.19;5038774;28;20254;-36
2023/04/27 02:57:12;;;;;;;7.07;4.25;;;;;;;17.95;45.23;102187.91;5036861;28;20452;-36
2023/04/27 02:59:39;;;;;;;5.05;3.58;;;;;;;17.93;44.82;102191.66;5034869;28;20049;-36
2023/04/27 03:02:05;;;;;;;6.97;4.32;;;;;;;17.91;45.00;102196.31;5033157;28;20041;-38
2023/04/27 03:04:33;;;;;;;7.82;4.35;;;;;;;17.88;44.96;102196.53;5035254;28;20131;-36
2023/04/27 03:06:59;;;;;;;8.43;4.45;;;;;;;17.85;44.70;102200.34;5033221;28;20049;-36
2023/04/27 03:09:26;;;;;;;6.75;4.05;;;;;;;17.81;44.87;102198.88;5038672;28;20056;-37
2023/04/27 03:11:52;;;;;;;5.72;3.85;;;;;;;17.79;45.07;102199.94;5039588;28;20095;-37
2023/04/27 03:14:19;;;;;;;5.80;4.03;;;;;;;17.71;44.98;102201.34;5041524;28;20041;-36
2023/04/27 03:16:45;;;;;;;5.90;3.65;;;;;;;17.62;45.28;102199.38;5036596;28;20059;-38
2023/04/27 03:19:12;;;;;;;5.10;3.42;;;;;;;17.56;45.58;102210.56;5037968;28;20088;-36
2023/04/27 03:21:39;;;;;;;6.38;4.03;;;;;;;17.49;45.58;102204.00;5029672;28;20050;-36
2023/04/27 03:24:06;;;;;;;6.25;3.90;;;;;;;17.41;45.23;102209.06;5035451;28;20050;-36
2023/04/27 03:26:32;;;;;;;7.07;3.58;;;;;;;17.33;45.81;102201.63;5038249;28;20045;-36
2023/04/27 03:28:59;;;;;;;4.82;3.40;;;;;;;17.24;45.79;102202.28;5037794;28;20076;-36
2023/04/27 03:31:26;;;;;;;6.07;3.70;;;;;;;17.17;46.30;102201.06;5048068;28;20162;-36
2023/04/27 03:33:52;;;;;;;4.60;3.35;;;;;;;17.10;45.76;102205.16;5031336;28;20076;-36
2023/04/27 03:36:19;;;;;;;4.90;3.08;;;;;;;17.02;46.25;102197.69;5034217;28;20425;-37
2023/04/27 03:38:46;;;;;;;7.22;3.42;;;;;;;16.93;46.13;102204.59;5039787;28;20085;-36
2023/04/27 03:41:12;;;;;;;5.32;3.08;;;;;;;16.88;46.59;102205.88;5035106;28;20048;-36
2023/04/27 03:43:39;;;;;;;6.03;3.30;;;;;;;16.81;46.40;102204.66;5036468;28;20048;-38
2023/04/27 03:46:05;;;;;;;5.80;3.63;;;;;;;16.75;46.35;102204.09;5032691;28;20144;-36
2023/04/27 03:48:32;;;;;;;5.55;3.40;;;;;;;16.70;46.58;102200.03;5038369;28;20395;-36
2023/04/27 03:50:59;;;;;;;5.35;3.58;;;;;;;16.65;47.09;102205.72;5037389;28;20053;-36
2023/04/27 03:53:26;;;;;;;5.88;3.28;;;;;;;16.59;47.26;102199.94;5040296;28;20399;-36
2023/04/27 03:55:53;;;;;;;4.78;3.20;;;;;;;16.54;47.05;102209.16;5038490;28;20064;-36
2023/04/27 03:58:19;;;;;;;5.38;2.92;;;;;;;16.49;47.78;102205.97;5038457;28;20053;-36
2023/04/27 04:00:46;;;;;;;5.75;3.45;;;;;;;16.45;47.05;102208.97;5033959;28;20045;-36
2023/04/27 04:03:12;;;;;;;6.07;3.17;;;;;;;16.42;47.71;102214.53;5030733;28;20398;-36
2023/04/27 04:05:39;;;;;;;5.57;3.15;;;;;;;16.40;47.48;102221.81;5037209;28;20440;-39
2023/04/27 04:08:06;;;;;;;4.57;2.97;;;;;;;16.46;48.10;102222.25;5038127;28;20057;-37
2023/04/27 04:10:32;;;;;;;4.78;2.90;;;;;;;16.56;46.89;102213.53;5032787;28;20042;-35
2023/04/27 04:12:59;;;;;;;4.97;3.70;;;;;;;16.68;46.85;102221.56;5035741;28;20053;-36
2023/04/27 04:15:25;;;;;;;4.03;2.80;;;;;;;16.80;46.85;102224.31;5037718;28;20053;-38
2023/04/27 04:17:52;;;;;;;5.75;3.08;;;;;;;16.92;46.85;102224.28;5029329;28;20364;-36
2023/04/27 04:20:19;;;;;;;6.00;3.03;;;;;;;17.06;46.41;102225.09;5030257;28;20049;-36
2023/04/27 04:22:45;;;;;;;4.57;3.20;;;;;;;17.16;46.55;102228.81;5031038;28;20061;-38
2023/04/27 04:25:12;;;;;;;5.45;3.03;;;;;;;17.25;46.14;102226.31;5035118;28;20091;-36
2023/04/27 04:27:39;;;;;;;5.15;3.00;;;;;;;17.36;46.44;102232.66;5034418;28;20045;-36
2023/04/27 04:30:07;;;;;;;3.85;2.90;;;;;;;17.42;46.26;102232.22;5032222;28;20057;-37
2023/04/27 04:32:36;;;;;;;4.22;2.97;;;;;;;17.47;45.86;102230.88;5032222;28;20289;-36
2023/04/27 04:35:04;;;;;;;4.07;2.65;;;;;;;17.52;45.55;102227.84;5030823;28;20073;-37
2023/04/27 04:37:33;;;;;;;4.55;2.80;;;;;;;17.54;45.64;102231.28;5034021;28;20049;-37
2023/04/27 04:40:07;;;;;;;4.72;2.60;;;;;;;17.57;45.45;102230.19;5029263;28;20277;-36
2023/04/27 04:42:36;;;;;;;4.55;3.20;;;;;;;17.56;45.60;102233.84;5032496;28;20052;-36
2023/04/27 04:45:03;;;;;;;4.40;2.63;;;;;;;17.56;45.43;102240.06;5031744;28;20041;-37
2023/04/27 04:47:33;;;;;;;6.65;2.95;;;;;;;17.55;45.31;102234.81;5032761;28;20041;-36
2023/04/27 04:49:59;;;;;;;4.63;2.80;;;;;;;17.53;45.56;102229.59;5035647;28;20126;-37
2023/04/27 04:52:26;;;;;;;4.40;2.92;;;;;;;17.52;45.52;102238.59;5034909;28;20115;-36
2023/04/27 04:54:53;;;;;;;4.50;2.40;;;;;;;17.48;45.55;102235.28;5039534;28;20141;-36
2023/04/27 04:57:20;;;;;;;3.78;2.42;;;;;;;17.45;45.45;102242.72;5035550;28;20079;-37
2023/04/27 04:59:46;;;;;;;3.72;2.35;;;;;;;17.41;45.60;102247.44;5034858;28;20076;-37
2023/04/27 05:02:13;;;;;;;4.35;2.70;;;;;;;17.36;45.66;102246.06;5030437;28;20432;-37
2023/04/27 05:04:39;;;;;;;4.47;2.58;;;;;;;17.30;45.97;102244.72;5033733;28;20049;-36
2023/04/27 05:07:06;;;;;;;3.95;2.60;;;;;;;17.24;46.13;102243.31;5037877;28;20396;-37
2023/04/27 05:09:33;;;;;;;4.38;2.58;;;;;;;17.20;46.44;102239.16;5033543;28;20060;-37
2023/04/27 05:12:03;;;;;;;6.40;3.17;;;;;;;17.16;45.86;102240.38;5024894;28;20413;-37
2023/04/27 05:14:29;;;;;;;4.45;3.10;;;;;;;17.13;46.33;102242.44;5026959;28;20049;-37
2023/04/27 05:16:56;;;;;;;5.30;2.90;;;;;;;17.13;46.55;102253.16;5031805;28;20049;-38
2023/04/27 05:19:24;;;;;;;5.07;2.90;;;;;;;17.13;46.29;102253.16;5035276;28;20041;-36
2023/04/27 05:21:50;;;;;;;4.78;3.10;;;;;;;17.13;46.63;102258.53;5033835;28;20130;-37
2023/04/27 05:24:17;;;;;;;4.32;2.80;;;;;;;17.14;46.63;102254.88;5029753;28;20127;-37
2023/04/27 05:26:43;;;;;;;5.05;2.67;;;;;;;17.16;46.77;102252.91;5037982;28;20053;-37
2023/04/27 05:29:10;;;;;;;5.57;3.20;;;;;;;17.17;46.42;102260.84;5032787;28;20060;-36
2023/04/27 05:31:37;;;;;;;8.48;5.05;;;;;;;17.21;46.48;102262.34;5021616;28;20346;-36
2023/04/27 05:34:03;;;;;;;16.80;6.90;;;;;;;17.25;45.83;102258.47;5024650;28;20057;-36
2023/04/27 05:36:30;;;;;;;17.80;9.35;;;;;;;17.31;45.75;102257.13;5028290;28;20060;-36
2023/04/27 05:38:57;;;;;;;17.33;9.77;;;;;;;17.36;46.54;102259.47;5036032;28;20049;-35
2023/04/27 05:41:24;;;;;;;20.05;11.20;;;;;;;17.38;45.76;102257.53;5034396;28;20114;-36
2023/04/27 05:43:50;;;;;;;19.88;11.05;;;;;;;17.41;46.11;102257.31;5028112;28;20059;-37
2023/04/27 05:46:17;;;;;;;20.48;12.05;;;;;;;17.42;46.01;102256.34;5034917;28;20421;-36
2023/04/27 05:48:43;;;;;;;17.67;10.70;;;;;;;17.43;45.86;102250.84;5035168;28;20136;-36
2023/04/27 05:51:10;;;;;;;20.67;11.50;;;;;;;17.44;45.84;102249.03;5022203;28;20045;-38
2023/04/27 05:53:37;;;;;;;23.73;12.55;;;;;;;17.44;45.79;102243.66;5023219;28;20080;-36
2023/04/27 05:56:05;;;;;;;21.77;12.07;;;;;;;17.46;45.77;102244.41;5030957;28;20051;-37
2023/04/27 05:58:32;;;;;;;21.17;12.05;;;;;;;17.47;45.63;102240.75;5025499;28;20355;-36
2023/04/27 06:01:00;;;;;;;21.15;11.85;;;;;;;17.48;45.62;102242.47;5033868;28;20341;-36
2023/04/27 06:03:28;;;;;;;18.20;11.13;;;;;;;17.49;45.29;102245.06;5023722;28;20447;-36
2023/04/27 06:05:56;;;;;;;22.85;13.63;;;;;;;17.50;44.91;102240.53;5024275;28;20364;-38
2023/04/27 06:08:25;;;;;;;27.23;14.93;;;;;;;17.52;45.27;102251.97;5023410;28;20324;-37
2023/04/27 06:10:52;;;;;;;24.45;14.43;;;;;;;17.52;45.12;102243.94;5026677;28;20702;-36
2023/04/27 06:13:19;;;;;;;24.50;13.98;;;;;;;17.53;45.42;102245.69;5028633;28;20053;-38
2023/04/27 06:15:46;;;;;;;24.70;13.48;;;;;;;17.55;45.65;102249.06;5024334;28;20060;-36
2023/04/27 06:18:13;;;;;;;22.77;12.45;;;;;;;17.56;45.31;102250.78;5025497;28;20049;-38
2023/04/27 06:20:40;;;;;;;19.23;11.18;;;;;;;17.57;46.03;102251.63;5027494;28;20046;-38
2023/04/27 06:23:07;;;;;;;30.20;14.77;;;;;;;17.58;45.62;102264.94;5028869;28;20049;-36
2023/04/27 06:25:36;;;;;;;27.33;12.57;;;;;;;17.62;46.15;102255.69;5025713;28;20052;-36
2023/04/27 06:28:03;;;;;;;21.98;11.63;;;;;;;17.66;45.77;102261.69;5028090;28;20060;-34
2023/04/27 06:30:29;;;;;;;23.02;13.45;;;;;;;17.67;45.74;102253.50;5029276;28;20049;-36
2023/04/27 06:32:56;;;;;;;27.92;14.05;;;;;;;17.69;45.35;102251.59;5029910;28;20149;-34
2023/04/27 06:35:22;;;;;;;24.23;13.77;;;;;;;17.70;45.87;102253.28;5030740;28;20370;-36
2023/04/27 06:37:50;;;;;;;47.65;22.10;;;;;;;17.73;46.14;102252.22;5026466;28;20049;-36
2023/04/27 06:40:16;;;;;;;32.95;15.98;;;;;;;17.74;45.95;102253.91;5025757;28;20071;-35
2023/04/27 06:42:43;;;;;;;38.92;18.23;;;;;;;17.76;46.27;102260.03;5026333;28;20072;-37
2023/04/27 06:45:10;;;;;;;39.35;16.92;;;;;;;17.76;46.12;102255.50;5019874;28;20085;-36
2023/04/27 06:47:37;;;;;;;30.60;16.73;;;;;;;17.79;46.48;102261.63;5027308;28;20041;-37
2023/04/27 06:50:04;;;;;;;37.38;15.57;;;;;;;17.80;45.97;102255.28;5032838;28;20148;-37
2023/04/27 06:52:32;;;;;;;32.83;14.75;;;;;;;17.81;45.73;102246.25;5030411;28;20045;-37
2023/04/27 06:54:58;;;;;;;29.65;14.27;;;;;;;17.81;46.23;102252.50;5039643;28;20132;-36
2023/04/27 06:57:25;;;;;;;36.20;15.13;;;;;;;17.83;45.85;102244.31;5033622;28;20425;-34
2023/04/27 06:59:52;;;;;;;31.85;14.57;;;;;;;17.84;45.65;102251.38;5038985;28;20053;-35
2023/04/27 07:02:18;;;;;;;27.42;14.43;;;;;;;17.83;45.66;102249.69;5037882;28;20047;-37
2023/04/27 07:04:45;;;;;;;29.73;14.48;;;;;;;17.84;45.62;102246.03;5036653;28;20046;-37
2023/04/27 07:07:12;;;;;;;28.33;13.77;;;;;;;17.84;45.61;102254.91;5037120;28;20410;-36
2023/04/27 07:09:39;;;;;;;24.75;12.93;;;;;;;17.85;45.43;102263.81;5035483;28;20049;-37
2023/04/27 07:12:06;;;;;;;25.38;12.98;;;;;;;17.85;44.94;102261.13;5034430;28;20065;-37
2023/04/27 07:14:32;;;;;;;24.80;12.63;;;;;;;17.85;45.10;102271.88;5033576;28;20492;-37
2023/04/27 07:16:59;;;;;;;21.60;10.90;;;;;;;17.85;44.92;102266.50;5033758;28;20059;-36
2023/04/27 07:19:26;;;;;;;26.15;12.98;;;;;;;17.83;44.99;102258.59;5031493;28;20093;-37
2023/04/27 07:21:52;;;;;;;20.52;11.15;;;;;;;17.83;44.63;102255.91;5034393;28;20045;-37
2023/04/27 07:24:19;;;;;;;19.98;10.43;;;;;;;17.82;44.35;102262.25;5036211;28;20071;-37
2023/04/27 07:26:46;;;;;;;20.63;9.93;;;;;;;17.80;44.28;102263.31;5034873;28;20061;-37
2023/04/27 07:29:15;;;;;;;23.23;11.10;;;;;;;17.80;44.26;102257.97;5028781;28;20587;-36
2023/04/27 07:31:53;;;;;;;21.38;10.23;;;;;;;17.78;44.30;102254.56;5030465;28;20128;-34
2023/04/27 07:34:19;;;;;;;18.13;9.57;;;;;;;17.75;43.71;102253.81;5033779;28;20075;-37
2023/04/27 07:36:46;;;;;;;20.42;9.73;;;;;;;17.74;43.99;102251.22;5019402;28;20057;-37
2023/04/27 07:39:13;;;;;;;19.35;10.43;;;;;;;17.73;44.08;102257.56;5020700;28;20045;-37
2023/04/27 07:41:40;;;;;;;17.80;9.68;;;;;;;17.74;44.14;102254.78;5022395;28;20113;-36
2023/04/27 07:44:07;;;;;;;16.25;8.68;;;;;;;17.72;44.20;102262.03;5025727;28;20116;-37
2023/04/27 07:46:33;;;;;;;17.73;9.25;;;;;;;17.73;44.33;102262.94;5020373;28;22468;-34
2023/04/27 07:49:01;;;;;;;20.73;9.27;;;;;;;17.73;43.79;102261.09;5020509;28;20052;-35
2023/04/27 07:51:28;;;;;;;16.05;9.00;;;;;;;17.73;44.27;102263.78;5025132;28;20067;-35
2023/04/27 07:53:55;;;;;;;21.02;9.93;;;;;;;17.73;43.72;102266.47;5020601;28;20060;-35
2023/04/27 07:56:21;;;;;;;21.15;9.73;;;;;;;17.75;43.70;102263.69;5016132;28;20057;-35
2023/04/27 07:58:48;;;;;;;18.45;8.75;;;;;;;17.75;43.79;102264.53;5033649;28;20053;-35
2023/04/27 08:01:15;;;;;;;16.35;8.82;;;;;;;17.76;43.91;102265.38;5015810;28;20129;-35
2023/04/27 08:03:43;;;;;;;15.70;7.72;;;;;;;17.76;43.56;102255.50;5017257;28;20085;-37
2023/04/27 08:06:10;;;;;;;14.63;8.50;;;;;;;17.78;43.83;102260.78;5021428;28;20365;-36
2023/04/27 08:08:37;;;;;;;13.50;8.02;;;;;;;17.79;43.80;102269.66;5016522;28;20153;-35
2023/04/27 08:11:04;;;;;;;15.68;8.27;;;;;;;17.80;43.62;102269.53;5015337;28;20049;-35
2023/04/27 08:13:32;;;;;;;18.80;8.52;;;;;;;17.84;43.71;102271.00;4981473;28;20050;-33
2023/04/27 08:15:59;;;;;;;18.52;7.90;;;;;;;17.87;43.70;102264.56;5017556;28;20053;-32
2023/04/27 08:18:26;;;;;;;15.93;7.80;;;;;;;17.89;43.63;102267.97;5010874;28;20061;-33
2023/04/27 08:20:53;;;;;;;15.20;8.15;;;;;;;17.92;43.54;102268.59;5010841;28;20061;-32
2023/04/27 08:23:20;;;;;;;16.17;8.23;;;;;;;17.94;43.51;102255.09;5014713;28;20061;-34
2023/04/27 08:25:47;;;;;;;17.60;7.95;;;;;;;17.97;43.71;102257.53;5014620;28;20061;-33
2023/04/27 08:28:14;;;;;;;15.63;8.10;;;;;;;18.01;43.79;102250.97;5018016;28;20150;-34
2023/04/27 08:30:41;;;;;;;16.02;8.30;;;;;;;18.06;43.77;102243.41;5016476;28;20048;-34
2023/04/27 08:33:08;;;;;;;15.23;8.30;;;;;;;18.12;43.67;102252.78;5011999;28;20054;-37
2023/04/27 08:35:35;;;;;;;16.33;7.82;;;;;;;18.15;44.31;102256.09;4993666;28;20065;-33
2023/04/27 08:38:01;;;;;;;12.73;7.07;;;;;;;18.20;43.60;102261.09;5019067;28;20263;-34
2023/04/27 08:40:28;;;;;;;19.35;9.07;;;;;;;18.21;44.53;102257.44;5015969;28;20148;-35
2023/04/27 08:42:57;;;;;;;17.77;8.32;;;;;;;18.22;44.35;102253.78;5016500;28;20391;-35
2023/04/27 08:45:25;;;;;;;18.55;9.13;;;;;;;18.22;44.22;102243.91;5017407;28;20132;-34
2023/04/27 08:47:52;;;;;;;18.60;10.05;;;;;;;18.23;45.04;102248.28;5013375;28;20060;-34
2023/04/27 08:50:19;;;;;;;18.73;10.60;;;;;;;18.22;44.50;102251.97;5020432;28;20601;-36
2023/04/27 08:52:47;;;;;;;18.92;9.23;;;;;;;18.23;44.20;102250.13;5017867;28;20435;-34
2023/04/27 08:55:13;;;;;;;22.85;9.82;;;;;;;18.24;43.99;102250.00;4991172;28;20065;-33
2023/04/27 08:57:52;;;;;;;20.08;9.93;;;;;;;18.27;44.26;102251.59;5014798;28;20404;-37
2023/04/27 09:00:20;;;;;;;15.05;8.93;;;;;;;18.29;43.53;102255.03;5014471;28;20272;-35
2023/04/27 09:02:47;;;;;;;23.40;12.38;;;;;;;18.30;43.63;102254.03;5012210;28;20053;-32
2023/04/27 09:05:18;;;;;;;20.00;9.73;;;;;;;18.33;43.66;102251.13;5014026;28;20135;-34
2023/04/27 09:07:55;;;;;;;30.88;12.02;;;;;;;18.35;44.40;102243.78;5014499;28;20203;-33
2023/04/27 09:10:22;;;;;;;21.73;12.18;;;;;;;18.42;43.95;102252.22;5014041;28;20377;-34
2023/04/27 09:12:59;;;;;;;22.65;12.15;;;;;;;18.45;44.88;102249.28;5010980;28;20056;-38
2023/04/27 09:15:27;;;;;;;23.13;12.48;;;;;;;18.50;44.19;102244.41;4981597;28;20083;-34
2023/04/27 09:17:55;;;;;;;14.73;9.32;;;;;;;18.49;44.46;102240.88;4997188;28;20058;-35
2023/04/27 09:20:23;;;;;;;21.45;11.38;;;;;;;18.50;44.74;102244.41;4993416;28;20171;-35
2023/04/27 09:22:56;;;;;;;22.25;11.52;;;;;;;18.52;44.49;102244.28;4987207;28;20049;-36
2023/04/27 09:25:30;;;;;;;25.00;11.60;;;;;;;18.53;44.79;102241.44;4994421;28;20053;-35
2023/04/27 09:27:58;;;;;;;22.92;11.80;;;;;;;18.54;44.23;102237.81;4992369;28;20061;-36
2023/04/27 09:30:25;;;;;;;21.55;11.77;;;;;;;18.58;44.79;102236.59;4986232;28;20817;-36
2023/04/27 09:32:56;;;;;;;28.05;14.80;;;;;;;18.61;44.50;102244.38;4993359;28;20062;-36
2023/04/27 09:35:30;;;;;;;25.10;13.48;;;;;;;18.68;43.97;102244.75;4961562;28;20057;-36
2023/04/27 09:37:59;;;;;;;27.17;12.02;;;;;;;18.71;43.89;102245.41;5012244;28;20531;-35
2023/04/27 09:40:29;;;;;;;19.70;11.75;;;;;;;18.77;44.15;102241.34;5011768;28;21202;-32
2023/04/27 09:43:02;;;;;;;21.45;12.30;;;;;;;18.83;44.21;102240.00;5017786;28;20042;-33
2023/04/27 09:45:29;;;;;;;19.42;10.93;;;;;;;18.88;43.95;102232.41;5014469;28;20396;-33
2023/04/27 09:47:57;;;;;;;21.13;10.95;;;;;;;18.93;44.14;102232.88;5010686;28;20049;-33
2023/04/27 09:50:23;;;;;;;19.25;10.40;;;;;;;18.98;44.42;102238.75;5011055;28;20330;-33
2023/04/27 09:52:50;;;;;;;20.20;11.32;;;;;;;19.03;44.25;102235.69;5012557;28;20065;-36
2023/04/27 09:55:23;;;;;;;19.83;10.63;;;;;;;19.08;43.63;102230.78;4981402;28;20156;-32
2023/04/27 09:58:02;;;;;;;17.83;9.93;;;;;;;19.13;44.04;102233.94;5021145;28;20337;-35
2023/04/27 10:00:41;;;;;;;18.48;10.90;;;;;;;19.19;43.84;102233.44;5014169;28;20464;-35
2023/04/27 10:03:20;;;;;;;14.05;8.98;;;;;;;19.23;43.42;102227.69;5010570;28;20433;-35
2023/04/27 10:06:16;;;;;;;17.27;10.02;;;;;;;19.30;43.45;102230.72;5010501;28;20348;-34
2023/04/27 10:08:44;;;;;;;18.45;9.40;;;;;;;19.36;43.84;102226.66;5014502;28;20049;-35
2023/04/27 10:11:15;;;;;;;17.65;8.80;;;;;;;19.39;43.34;102227.25;5014051;28;20045;-36
2023/04/27 10:13:54;;;;;;;18.90;9.82;;;;;;;19.43;43.49;102227.84;5010499;28;20061;-35
2023/04/27 10:16:21;;;;;;;20.55;9.30;;;;;;;19.47;43.63;102222.09;4972672;28;20055;-36
2023/04/27 10:18:53;;;;;;;19.95;9.00;;;;;;;19.47;43.94;102229.31;5015682;28;20134;-35
2023/04/27 10:21:21;;;;;;;15.73;8.77;;;;;;;19.49;43.85;102216.56;5011706;28;20605;-35
2023/04/27 10:23:50;;;;;;;14.63;8.55;;;;;;;19.49;43.86;102220.09;5012017;28;20456;-36
2023/04/27 10:26:27;;;;;;;15.15;8.93;;;;;;;19.49;43.54;102228.16;5009272;28;20053;-36
2023/04/27 10:29:07;;;;;;;15.52;8.38;;;;;;;19.52;43.63;102226.22;5015325;28;20049;-36
2023/04/27 10:31:34;;;;;;;17.95;10.07;;;;;;;19.53;43.48;102218.00;5011289;28;20414;-35
2023/04/27 10:34:08;;;;;;;14.77;8.75;;;;;;;19.56;43.56;102216.91;5011686;28;20435;-37
2023/04/27 10:36:36;;;;;;;16.40;9.27;;;;;;;19.59;43.35;102217.50;4974185;28;20060;-34
2023/04/27 10:39:17;;;;;;;16.52;8.05;;;;;;;19.63;43.27;102213.59;5009381;28;20293;-35
2023/04/27 10:41:55;;;;;;;16.65;9.73;;;;;;;19.69;42.77;102220.28;5010765;28;20045;-35
2023/04/27 10:44:29;;;;;;;16.33;8.75;;;;;;;19.75;42.74;102213.53;5014363;28;20049;-35
2023/04/27 10:47:01;;;;;;;13.82;8.70;;;;;;;19.80;43.04;102211.31;5011056;28;20045;-34
2023/04/27 10:49:28;;;;;;;18.95;8.40;;;;;;;19.85;42.89;102209.06;5014362;28;20060;-35
2023/04/27 10:51:57;;;;;;;15.02;8.32;;;;;;;19.92;42.96;102213.78;5008348;28;20057;-35
2023/04/27 10:54:27;;;;;;;11.35;7.15;;;;;;;20.02;42.62;102204.91;5012432;28;20103;-34
2023/04/27 10:57:01;;;;;;;15.40;8.52;;;;;;;20.13;43.05;102215.59;4988902;28;20153;-41
2023/04/27 10:59:27;;;;;;;13.75;7.93;;;;;;;20.24;42.38;102209.28;5014694;28;20053;-38
2023/04/27 11:01:54;;;;;;;13.30;6.68;;;;;;;20.34;42.25;102199.38;5014563;28;20358;-38
2023/04/27 11:04:21;;;;;;;12.95;7.20;;;;;;;20.48;42.65;102198.16;5013248;28;20058;-37
2023/04/27 11:06:49;;;;;;;13.88;6.75;;;;;;;20.58;42.13;102196.38;5013661;28;20060;-41
2023/04/27 11:09:26;;;;;;;14.88;6.75;;;;;;;20.66;41.69;102189.34;5012678;28;20138;-37
2023/04/27 11:11:53;;;;;;;13.93;7.03;;;;;;;20.76;42.19;102181.25;5015423;28;20409;-36
2023/04/27 11:14:22;;;;;;;12.98;6.85;;;;;;;20.84;41.84;102175.19;5016600;28;20051;-36
2023/04/27 11:16:49;;;;;;;11.48;6.32;;;;;;;20.90;41.28;102174.59;4979841;28;20535;-44
2023/04/27 11:19:18;;;;;;;10.60;5.90;;;;;;;20.97;41.14;102173.06;5016400;28;20420;-41